Terminal Aerodrome Forecast
Issued by NWS Louisville, KY

Home | Current Version | Previous Version | Text Only | Print | Product List | Glossary On
Versions: 1 2 3 4 5 6 7 8 9 10 11 12 13 14 15 16
000
FTUS43 KLMK 051100
TAFBWG
TAF
KBWG 051120Z 0512/0612 00000KT 6SM BR SKC
      TEMPO 0512/0514 3SM BR
     FM051400 21009KT P6SM SCT060 SCT150
     FM060000 VRB03KT P6SM SKC=

USA.gov is the U.S. government's official web portal to all federal, state and local government web resources and services.